createdAt,value
2018-07-02T00:00:38.370Z,81.40
2018-07-02T00:01:38.366Z,89.90
2018-07-02T00:02:38.358Z,87.60
2018-07-02T00:03:38.348Z,81.90
2018-07-02T00:04:38.341Z,80.70
2018-07-02T00:05:38.330Z,86.00
2018-07-02T00:06:38.325Z,81.50
2018-07-02T00:07:38.316Z,83.80
2018-07-02T00:08:38.307Z,85.30
2018-07-02T00:09:38.302Z,86.70
2018-07-02T00:10:38.292Z,82.90
2018-07-02T00:11:38.284Z,88.30
2018-07-02T00:12:38.281Z,86.00
2018-07-02T00:13:38.268Z,85.50
2018-07-02T00:14:38.260Z,83.00
2018-07-02T00:15:38.252Z,89.80
2018-07-02T00:16:38.246Z,88.80
2018-07-02T00:17:38.236Z,88.60
2018-07-02T00:18:38.228Z,90.70
2018-07-02T00:19:38.223Z,87.20
2018-07-02T00:20:38.213Z,94.20
2018-07-02T00:21:38.205Z,92.10
2018-07-02T00:22:38.196Z,90.50
2018-07-02T00:23:38.189Z,93.70
2018-07-02T00:24:38.182Z,91.90
2018-07-02T00:25:38.172Z,95.20
2018-07-02T00:26:38.168Z,95.60
2018-07-02T00:27:38.157Z,93.40
2018-07-02T00:28:38.149Z,96.30
2018-07-02T00:29:38.140Z,89.70
2018-07-02T00:30:38.132Z,103.20
2018-07-02T00:31:38.125Z,91.30
2018-07-02T00:32:38.116Z,98.40
2018-07-02T00:33:38.108Z,92.80
2018-07-02T00:34:38.100Z,94.50
2018-07-02T00:35:38.092Z,92.10
2018-07-02T00:36:38.084Z,95.50
2018-07-02T00:37:38.077Z,95.30
2018-07-02T00:38:38.068Z,90.60
2018-07-02T00:39:38.061Z,94.80
2018-07-02T00:40:38.052Z,99.30
2018-07-02T00:41:38.042Z,98.30
2018-07-02T00:42:38.080Z,101.30
2018-07-02T00:43:38.027Z,100.30
2018-07-02T00:44:38.020Z,101.60
2018-07-02T00:45:38.009Z,101.60
2018-07-02T00:46:38.001Z,96.30
2018-07-02T00:47:37.993Z,102.50
2018-07-02T00:48:37.985Z,106.90
2018-07-02T00:49:37.977Z,104.60
2018-07-02T00:50:37.968Z,103.40
2018-07-02T00:51:37.962Z,103.40
2018-07-02T00:52:37.955Z,97.40
2018-07-02T00:53:37.942Z,101.20
2018-07-02T00:54:37.937Z,99.50
2018-07-02T00:55:37.926Z,99.30
2018-07-02T00:56:37.918Z,99.50
2018-07-02T00:57:37.909Z,97.10
2018-07-02T00:58:37.900Z,98.20
2018-07-02T00:59:37.892Z,99.60
2018-07-02T01:00:37.885Z,102.90
2018-07-02T01:01:37.878Z,109.10
2018-07-02T01:02:37.867Z,109.70
2018-07-02T01:03:37.870Z,106.60
2018-07-02T01:04:37.851Z,105.90
2018-07-02T01:05:37.841Z,111.20
2018-07-02T01:06:37.834Z,109.80
2018-07-02T01:07:37.826Z,103.30
2018-07-02T01:08:37.817Z,108.70
2018-07-02T01:09:37.807Z,109.10
2018-07-02T01:10:37.801Z,115.30
2018-07-02T01:11:37.791Z,116.80
2018-07-02T01:12:37.783Z,114.50
2018-07-02T01:13:37.775Z,117.70
2018-07-02T01:14:37.766Z,115.00
2018-07-02T01:15:37.758Z,113.90
2018-07-02T01:16:37.752Z,111.10
2018-07-02T01:17:37.741Z,116.90
2018-07-02T01:18:37.732Z,110.30
2018-07-02T01:19:37.725Z,109.50
2018-07-02T01:20:37.724Z,112.20
2018-07-02T01:21:37.707Z,110.50
2018-07-02T01:22:37.698Z,110.00
2018-07-02T01:23:37.691Z,112.60
2018-07-02T01:24:37.685Z,112.00
2018-07-02T01:25:37.677Z,119.70
2018-07-02T01:26:37.665Z,106.70
2018-07-02T01:27:37.659Z,111.00
2018-07-02T01:28:37.649Z,107.30
2018-07-02T01:29:37.640Z,112.30
2018-07-02T01:30:37.632Z,108.30
2018-07-02T01:31:37.623Z,111.30
2018-07-02T01:32:37.614Z,110.70
2018-07-02T01:33:37.606Z,105.40
2018-07-02T01:34:37.599Z,110.50
2018-07-02T01:35:37.589Z,104.00
2018-07-02T01:36:37.581Z,107.80
2018-07-02T01:37:37.572Z,103.00
2018-07-02T01:38:37.563Z,106.90
2018-07-02T01:39:37.555Z,108.60
2018-07-02T01:40:37.548Z,105.60
2018-07-02T01:41:37.537Z,112.10
2018-07-02T01:42:37.529Z,110.50
2018-07-02T01:43:37.521Z,108.90
2018-07-02T01:44:37.512Z,115.40
2018-07-02T01:45:37.503Z,117.20
2018-07-02T01:46:37.495Z,115.50
2018-07-02T01:47:37.486Z,117.80
2018-07-02T01:48:37.678Z,114.30
2018-07-02T01:49:37.468Z,115.60
2018-07-02T01:50:37.460Z,118.30
2018-07-02T01:51:37.451Z,116.80
2018-07-02T01:52:37.443Z,106.30
2018-07-02T01:53:37.434Z,106.30
2018-07-02T01:54:37.425Z,100.90
2018-07-02T01:55:37.417Z,104.60
2018-07-02T01:56:37.410Z,109.20
2018-07-02T01:57:37.399Z,103.40
2018-07-02T01:58:37.391Z,99.70
2018-07-02T01:59:37.383Z,102.10
2018-07-02T02:00:37.375Z,101.90
2018-07-02T02:01:37.365Z,103.20
2018-07-02T02:02:37.358Z,102.90
2018-07-02T02:03:37.348Z,100.40
2018-07-02T02:04:37.339Z,101.40
2018-07-02T02:05:37.330Z,102.70
2018-07-02T02:06:37.321Z,98.50
2018-07-02T02:07:37.314Z,105.90
2018-07-02T02:08:37.305Z,101.50
2018-07-02T02:09:37.294Z,102.20
2018-07-02T02:10:37.286Z,107.00
2018-07-02T02:11:37.279Z,106.90
2018-07-02T02:12:37.269Z,106.90
2018-07-02T02:13:37.259Z,104.80
2018-07-02T02:14:37.253Z,103.30
2018-07-02T02:15:37.242Z,115.40
2018-07-02T02:16:37.234Z,108.50
2018-07-02T02:17:37.227Z,108.20
2018-07-02T02:18:37.216Z,104.30
2018-07-02T02:19:37.206Z,105.60
2018-07-02T02:20:37.198Z,115.30
2018-07-02T02:21:37.188Z,106.00
2018-07-02T02:22:37.179Z,112.60
2018-07-02T02:23:37.173Z,110.70
2018-07-02T02:24:37.166Z,110.70
2018-07-02T02:25:37.153Z,110.70
2018-07-02T02:26:37.144Z,111.70
2018-07-02T02:27:37.138Z,111.10
2018-07-02T02:28:37.153Z,108.00
2018-07-02T02:29:37.124Z,109.30
2018-07-02T02:30:37.124Z,109.30
2018-07-02T02:31:37.106Z,108.80
2018-07-02T02:32:37.091Z,104.50
2018-07-02T02:33:37.081Z,100.20
2018-07-02T02:34:37.074Z,107.20
2018-07-02T02:35:37.064Z,105.20
2018-07-02T02:36:37.055Z,107.70
2018-07-02T02:37:37.045Z,105.80
2018-07-02T02:38:37.036Z,105.00
2018-07-02T02:39:37.031Z,106.90
2018-07-02T02:40:37.021Z,112.00
2018-07-02T02:41:37.008Z,106.00
2018-07-02T02:42:37.008Z,111.00
2018-07-02T02:43:36.992Z,103.90
2018-07-02T02:44:36.982Z,107.00
2018-07-02T02:45:36.972Z,108.70
2018-07-02T02:46:36.963Z,106.80
2018-07-02T02:47:36.955Z,109.90
2018-07-02T02:48:37.146Z,106.50
2018-07-02T02:49:36.936Z,105.10
2018-07-02T02:50:36.927Z,107.00
2018-07-02T02:51:36.919Z,106.90
2018-07-02T02:52:36.910Z,112.20
2018-07-02T02:53:36.900Z,112.90
2018-07-02T02:54:36.891Z,110.30
2018-07-02T02:55:36.882Z,111.10
2018-07-02T02:56:36.874Z,117.40
2018-07-02T02:57:36.866Z,112.00
2018-07-02T02:58:36.855Z,112.30
2018-07-02T02:59:36.846Z,105.70
2018-07-02T03:00:37.037Z,116.00
2018-07-02T03:01:36.831Z,109.40
2018-07-02T03:02:36.820Z,107.10
2018-07-02T03:03:36.809Z,111.70
2018-07-02T03:04:36.802Z,111.90
2018-07-02T03:05:36.791Z,118.20
2018-07-02T03:06:36.783Z,116.30
2018-07-02T03:07:36.774Z,118.50
2018-07-02T03:08:36.764Z,116.00
2018-07-02T03:09:36.803Z,115.00
2018-07-02T03:10:36.745Z,119.90
2018-07-02T03:11:36.736Z,115.10
2018-07-02T03:12:36.732Z,123.90
2018-07-02T03:13:36.717Z,118.60
2018-07-02T03:14:36.709Z,120.50
2018-07-02T03:15:36.700Z,115.20
2018-07-02T03:16:36.692Z,118.60
2018-07-02T03:17:36.680Z,113.70
2018-07-02T03:18:36.671Z,114.60
2018-07-02T03:19:36.663Z,116.00
2018-07-02T03:20:36.653Z,116.70
2018-07-02T03:21:36.643Z,115.30
2018-07-02T03:22:36.651Z,122.00
2018-07-02T03:23:36.625Z,122.90
2018-07-02T03:24:36.618Z,114.00
2018-07-02T03:25:36.606Z,117.60
2018-07-02T03:26:36.601Z,118.60
2018-07-02T03:27:36.587Z,118.20
2018-07-02T03:28:36.579Z,118.90
2018-07-02T03:29:36.569Z,121.60
2018-07-02T03:30:36.560Z,118.90
2018-07-02T03:31:36.550Z,124.80
2018-07-02T03:32:36.541Z,113.50
2018-07-02T03:33:36.531Z,116.10
2018-07-02T03:34:36.521Z,123.10
2018-07-02T03:35:36.513Z,120.20
2018-07-02T03:36:36.505Z,112.20
2018-07-02T03:37:36.494Z,120.30
2018-07-02T03:38:36.484Z,111.40
2018-07-02T03:39:36.475Z,115.60
2018-07-02T03:40:36.466Z,113.30
2018-07-02T03:41:36.456Z,110.90
2018-07-02T03:42:36.447Z,117.00
2018-07-02T03:43:36.438Z,122.00
2018-07-02T03:44:36.429Z,116.70
2018-07-02T03:45:36.420Z,118.40
2018-07-02T03:46:36.409Z,124.10
2018-07-02T03:47:36.400Z,127.30
2018-07-02T03:48:36.390Z,116.70
2018-07-02T03:49:36.380Z,115.50
2018-07-02T03:50:36.371Z,119.40
2018-07-02T03:51:36.362Z,113.10
2018-07-02T03:52:36.355Z,108.30
2018-07-02T03:53:36.344Z,115.00
2018-07-02T03:54:36.333Z,111.40
2018-07-02T03:55:36.324Z,107.70
2018-07-02T03:56:36.315Z,112.80
2018-07-02T03:57:36.306Z,115.50
2018-07-02T03:58:36.296Z,115.20
2018-07-02T03:59:36.286Z,109.90
2018-07-02T04:00:36.277Z,115.70
2018-07-02T04:01:36.268Z,118.20
2018-07-02T04:02:36.259Z,113.90
2018-07-02T04:03:36.248Z,116.50
2018-07-02T04:04:36.239Z,115.40
2018-07-02T04:05:36.231Z,110.60
2018-07-02T04:06:36.220Z,108.70
2018-07-02T04:07:36.212Z,113.00
2018-07-02T04:08:36.201Z,113.60
2018-07-02T04:09:36.190Z,109.00
2018-07-02T04:10:36.181Z,115.90
2018-07-02T04:11:36.173Z,110.00
2018-07-02T04:12:36.163Z,111.20
2018-07-02T04:13:36.153Z,106.50
2018-07-02T04:14:36.143Z,108.20
2018-07-02T04:15:36.135Z,115.20
2018-07-02T04:16:36.126Z,112.90
2018-07-02T04:17:36.116Z,114.50
2018-07-02T04:18:36.106Z,112.60
2018-07-02T04:19:36.098Z,110.10
2018-07-02T04:20:36.086Z,111.70
2018-07-02T04:21:36.076Z,111.60
2018-07-02T04:22:36.067Z,106.80
2018-07-02T04:23:36.058Z,107.00
2018-07-02T04:24:36.051Z,114.20
2018-07-02T04:25:36.038Z,113.10
2018-07-02T04:26:36.031Z,118.60
2018-07-02T04:27:36.020Z,111.60
2018-07-02T04:28:36.011Z,112.50
2018-07-02T04:29:36.000Z,116.40
2018-07-02T04:30:35.990Z,112.30
2018-07-02T04:31:35.981Z,113.40
2018-07-02T04:32:36.022Z,111.90
2018-07-02T04:33:35.965Z,110.80
2018-07-02T04:34:35.952Z,111.80
2018-07-02T04:35:35.942Z,114.30
2018-07-02T04:36:36.136Z,112.10
2018-07-02T04:37:35.923Z,112.10
2018-07-02T04:38:35.913Z,111.50
2018-07-02T04:39:35.903Z,113.10
2018-07-02T04:40:35.893Z,109.60
2018-07-02T04:41:35.883Z,106.80
2018-07-02T04:42:35.873Z,111.30
2018-07-02T04:43:35.864Z,108.80
2018-07-02T04:44:35.857Z,107.60
2018-07-02T04:45:35.844Z,103.70
2018-07-02T04:46:35.836Z,104.10
2018-07-02T04:47:35.833Z,105.00
2018-07-02T04:48:35.815Z,104.20
2018-07-02T04:49:35.804Z,106.50
2018-07-02T04:50:35.795Z,103.40
2018-07-02T04:51:35.786Z,105.60
2018-07-02T04:52:35.776Z,106.30
2018-07-02T04:53:35.766Z,105.90
2018-07-02T04:54:35.762Z,107.70
2018-07-02T04:55:35.746Z,108.50
2018-07-02T04:56:35.738Z,108.80
2018-07-02T04:57:35.727Z,111.90
2018-07-02T04:58:35.717Z,103.80
2018-07-02T04:59:35.748Z,108.60
2018-07-02T05:00:35.698Z,107.30
2018-07-02T05:01:35.687Z,105.00
2018-07-02T05:02:35.678Z,107.70
2018-07-02T05:03:35.670Z,109.00
2018-07-02T05:04:35.660Z,110.80
2018-07-02T05:05:35.649Z,108.80
2018-07-02T05:06:35.639Z,111.60
2018-07-02T05:07:35.662Z,108.30
2018-07-02T05:08:35.620Z,106.70
2018-07-02T05:09:35.609Z,111.00
2018-07-02T05:10:35.600Z,111.30
2018-07-02T05:11:35.591Z,111.60
2018-07-02T05:12:35.781Z,109.50
2018-07-02T05:13:35.766Z,111.20
2018-07-02T05:14:35.561Z,108.10
2018-07-02T05:15:35.551Z,106.00
2018-07-02T05:16:35.541Z,105.80
2018-07-02T05:17:35.531Z,104.80
2018-07-02T05:18:35.521Z,105.40
2018-07-02T05:19:35.513Z,106.80
2018-07-02T05:20:35.503Z,108.40
2018-07-02T05:21:35.492Z,110.00
2018-07-02T05:22:35.482Z,110.30
2018-07-02T05:23:35.473Z,109.30
2018-07-02T05:24:35.664Z,112.30
2018-07-02T05:25:35.455Z,114.50
2018-07-02T05:26:35.443Z,115.50
2018-07-02T05:27:35.434Z,111.20
2018-07-02T05:28:35.424Z,113.00
2018-07-02T05:29:35.413Z,119.70
2018-07-02T05:30:35.604Z,115.70
2018-07-02T05:31:35.394Z,114.30
2018-07-02T05:32:35.384Z,113.00
2018-07-02T05:33:35.374Z,116.50
2018-07-02T05:34:35.367Z,114.60
2018-07-02T05:35:35.356Z,118.00
2018-07-02T05:36:35.345Z,114.50
2018-07-02T05:37:35.335Z,112.60
2018-07-02T05:38:35.324Z,115.80
2018-07-02T05:39:35.314Z,117.80
2018-07-02T05:40:35.305Z,114.80
2018-07-02T05:41:35.294Z,110.50
2018-07-02T05:42:35.485Z,113.20
2018-07-02T05:43:35.274Z,109.00
2018-07-02T05:44:35.264Z,107.20
2018-07-02T05:45:35.256Z,104.90
2018-07-02T05:46:35.245Z,104.80
2018-07-02T05:47:35.236Z,101.70
2018-07-02T05:48:35.477Z,97.00
2018-07-02T05:49:35.214Z,96.70
2018-07-02T05:50:35.204Z,94.70
2018-07-02T05:51:35.195Z,90.10
2018-07-02T05:52:35.185Z,88.80
2018-07-02T05:53:35.175Z,87.70
2018-07-02T05:54:35.165Z,86.20
2018-07-02T05:55:35.155Z,84.70
2018-07-02T05:56:35.144Z,87.10
2018-07-02T05:57:35.136Z,86.20
2018-07-02T05:58:35.125Z,86.90
2018-07-02T05:59:35.116Z,88.60
2018-07-02T06:00:35.375Z,91.90
2018-07-02T06:01:35.095Z,89.00
2018-07-02T06:02:35.085Z,89.10
2018-07-02T06:03:35.076Z,90.90
2018-07-02T06:04:35.067Z,88.10
2018-07-02T06:05:35.055Z,85.20
2018-07-02T06:06:35.046Z,88.00
2018-07-02T06:07:35.037Z,89.50
2018-07-02T06:08:35.026Z,89.00
2018-07-02T06:09:35.015Z,85.20
2018-07-02T06:10:35.006Z,86.00
2018-07-02T06:11:34.995Z,79.50
2018-07-02T06:12:34.985Z,81.40
2018-07-02T06:13:34.975Z,80.10
2018-07-02T06:14:34.965Z,77.60
2018-07-02T06:15:34.956Z,83.50
2018-07-02T06:16:35.002Z,87.50
2018-07-02T06:17:34.935Z,88.80
2018-07-02T06:18:34.925Z,84.40
2018-07-02T06:19:34.917Z,88.80
2018-07-02T06:20:34.905Z,83.20
2018-07-02T06:21:34.894Z,78.70
2018-07-02T06:22:34.887Z,74.70
2018-07-02T06:23:34.875Z,75.30
2018-07-02T06:24:35.065Z,76.10
2018-07-02T06:25:34.854Z,73.20
2018-07-02T06:26:34.845Z,77.00
2018-07-02T06:27:34.834Z,76.90
2018-07-02T06:28:34.825Z,80.30
2018-07-02T06:29:34.813Z,80.00
2018-07-02T06:30:34.849Z,83.00
2018-07-02T06:31:34.793Z,89.90
2018-07-02T06:32:34.784Z,86.70
2018-07-02T06:33:34.773Z,81.00
2018-07-02T06:34:34.763Z,73.80
2018-07-02T06:35:34.753Z,77.80
2018-07-02T06:36:34.944Z,80.20
2018-07-02T06:37:34.732Z,78.80
2018-07-02T06:38:34.723Z,76.80
2018-07-02T06:39:34.712Z,72.40
2018-07-02T06:40:34.704Z,70.50
2018-07-02T06:41:34.693Z,70.90
2018-07-02T06:42:34.883Z,72.40
2018-07-02T06:43:34.672Z,72.50
2018-07-02T06:44:34.667Z,72.00
2018-07-02T06:45:34.653Z,70.90
2018-07-02T06:46:34.641Z,71.10
2018-07-02T06:47:34.631Z,72.50
2018-07-02T06:48:34.669Z,70.30
2018-07-02T06:49:34.610Z,74.70
2018-07-02T06:50:34.602Z,73.90
2018-07-02T06:51:34.591Z,75.00
2018-07-02T06:52:34.581Z,77.90
2018-07-02T06:53:34.570Z,77.80
2018-07-02T06:54:34.560Z,77.40
2018-07-02T06:55:34.551Z,78.30
2018-07-02T06:56:34.540Z,79.00
2018-07-02T06:57:34.531Z,78.30
2018-07-02T06:58:34.572Z,76.40
2018-07-02T06:59:34.511Z,75.70
2018-07-02T07:00:34.500Z,75.80
2018-07-02T07:01:34.488Z,75.40
2018-07-02T07:02:34.480Z,75.40
2018-07-02T07:03:34.468Z,76.40
2018-07-02T07:04:34.458Z,76.40
2018-07-02T07:05:34.448Z,78.60
2018-07-02T07:06:34.441Z,79.20
2018-07-02T07:07:34.430Z,87.10
2018-07-02T07:08:34.469Z,84.70
2018-07-02T07:09:34.407Z,84.10
2018-07-02T07:10:34.397Z,79.80
2018-07-02T07:11:34.387Z,79.70
2018-07-02T07:12:34.578Z,79.70
2018-07-02T07:13:34.366Z,78.90
2018-07-02T07:14:34.361Z,80.60
2018-07-02T07:15:34.360Z,82.40
2018-07-02T07:16:34.342Z,85.80
2018-07-02T07:17:34.328Z,86.40
2018-07-02T07:18:34.315Z,85.60
2018-07-02T07:19:34.307Z,88.50
2018-07-02T07:20:34.295Z,87.30
2018-07-02T07:21:34.284Z,88.10
2018-07-02T07:22:34.275Z,88.40
2018-07-02T07:23:34.265Z,87.60
2018-07-02T07:24:34.256Z,85.00
2018-07-02T07:25:34.243Z,84.60
2018-07-02T07:26:34.234Z,87.70
2018-07-02T07:27:34.273Z,87.20
2018-07-02T07:28:34.214Z,93.60
2018-07-02T07:29:34.202Z,91.70
2018-07-02T07:30:34.393Z,91.20
2018-07-02T07:31:34.183Z,85.00
2018-07-02T07:32:34.172Z,86.90
2018-07-02T07:33:34.162Z,88.60
2018-07-02T07:34:34.151Z,90.90
2018-07-02T07:35:34.141Z,89.20
2018-07-02T07:36:34.133Z,87.80
2018-07-02T07:37:34.214Z,87.70
2018-07-02T07:38:34.110Z,86.20
2018-07-02T07:39:34.100Z,88.20
2018-07-02T07:40:34.091Z,86.30
2018-07-02T07:41:34.079Z,86.40
2018-07-02T07:42:34.069Z,88.40
2018-07-02T07:43:34.060Z,88.90
2018-07-02T07:44:34.049Z,88.00
2018-07-02T07:45:34.038Z,88.00
2018-07-02T07:46:34.029Z,88.30
2018-07-02T07:47:34.041Z,87.10
2018-07-02T07:48:34.008Z,89.90
2018-07-02T07:49:33.996Z,88.50
2018-07-02T07:50:33.990Z,86.40
2018-07-02T07:51:33.976Z,84.80
2018-07-02T07:52:33.966Z,86.10
2018-07-02T07:53:33.955Z,82.10
2018-07-02T07:54:33.945Z,78.50
2018-07-02T07:55:33.935Z,78.90
2018-07-02T07:56:33.925Z,78.70
2018-07-02T07:57:33.916Z,78.40
2018-07-02T07:58:33.905Z,78.70
2018-07-02T07:59:33.911Z,80.60
2018-07-02T08:00:33.883Z,77.30
2018-07-02T08:01:33.877Z,80.50
2018-07-02T08:02:33.862Z,78.30
2018-07-02T08:03:33.882Z,80.70
2018-07-02T08:04:33.841Z,81.60
2018-07-02T08:05:33.832Z,82.00
2018-07-02T08:06:34.021Z,82.90
2018-07-02T08:07:33.810Z,79.50
2018-07-02T08:08:33.800Z,82.30
2018-07-02T08:09:33.791Z,82.40
2018-07-02T08:10:33.794Z,81.50
2018-07-02T08:11:33.769Z,82.60
2018-07-02T08:12:33.760Z,80.00
2018-07-02T08:13:33.747Z,77.60
2018-07-02T08:14:33.737Z,77.90
2018-07-02T08:15:33.725Z,79.00
2018-07-02T08:16:33.719Z,77.80
2018-07-02T08:17:33.704Z,76.20
2018-07-02T08:18:33.696Z,77.20
2018-07-02T08:19:33.684Z,75.20
2018-07-02T08:20:33.675Z,75.40
2018-07-02T08:21:33.663Z,77.00
2018-07-02T08:22:33.652Z,77.00
2018-07-02T08:23:33.641Z,78.00
2018-07-02T08:24:33.633Z,77.00
2018-07-02T08:25:33.621Z,79.10
2018-07-02T08:26:33.611Z,78.50
2018-07-02T08:27:33.600Z,74.70
2018-07-02T08:28:33.595Z,74.40
2018-07-02T08:29:33.579Z,74.50
2018-07-02T08:30:33.568Z,72.60
2018-07-02T08:31:33.560Z,71.40
2018-07-02T08:32:33.550Z,72.70
2018-07-02T08:33:33.537Z,68.60
2018-07-02T08:34:33.527Z,70.50
2018-07-02T08:35:33.518Z,68.80
2018-07-02T08:36:33.507Z,68.50
2018-07-02T08:37:33.495Z,66.70
2018-07-02T08:38:33.485Z,66.50
2018-07-02T08:39:33.475Z,67.20
2018-07-02T08:40:33.465Z,66.90
2018-07-02T08:41:33.497Z,65.80
2018-07-02T08:42:33.443Z,66.90
2018-07-02T08:43:33.432Z,67.90
2018-07-02T08:44:33.423Z,69.20
2018-07-02T08:45:33.414Z,68.10
2018-07-02T08:46:33.401Z,65.70
2018-07-02T08:47:33.390Z,67.70
2018-07-02T08:48:33.380Z,68.90
2018-07-02T08:49:33.369Z,68.30
2018-07-02T08:50:33.361Z,69.20
2018-07-02T08:51:33.349Z,68.40
2018-07-02T08:52:33.338Z,69.00
2018-07-02T08:53:33.327Z,68.30
2018-07-02T08:54:33.517Z,66.40
2018-07-02T08:55:33.306Z,70.00
2018-07-02T08:56:33.296Z,71.10
2018-07-02T08:57:33.288Z,71.20
2018-07-02T08:58:33.275Z,73.10
2018-07-02T08:59:33.264Z,72.40
2018-07-02T09:00:33.255Z,70.50
2018-07-02T09:01:33.242Z,70.40
2018-07-02T09:02:33.232Z,71.70
2018-07-02T09:03:33.221Z,73.10
2018-07-02T09:04:33.212Z,72.40
2018-07-02T09:05:33.200Z,72.50
2018-07-02T09:06:33.190Z,73.50
2018-07-02T09:07:33.179Z,74.20
2018-07-02T09:08:33.169Z,71.30
2018-07-02T09:09:33.158Z,72.20
2018-07-02T09:10:33.146Z,74.50
2018-07-02T09:11:33.278Z,72.20
2018-07-02T09:12:33.126Z,71.80
2018-07-02T09:13:33.115Z,73.90
2018-07-02T09:14:33.105Z,75.10
2018-07-02T09:15:33.096Z,74.60
2018-07-02T09:16:33.086Z,73.40
2018-07-02T09:17:33.073Z,72.30
2018-07-02T09:18:33.063Z,74.20
2018-07-02T09:19:33.053Z,77.10
2018-07-02T09:20:33.042Z,77.00
2018-07-02T09:21:33.032Z,78.20
2018-07-02T09:22:33.021Z,78.30
2018-07-02T09:23:33.011Z,80.60
2018-07-02T09:24:33.001Z,80.10
2018-07-02T09:25:33.024Z,81.60
2018-07-02T09:26:32.980Z,83.30
2018-07-02T09:27:32.969Z,80.70
2018-07-02T09:28:32.971Z,79.60
2018-07-02T09:29:32.947Z,79.00
2018-07-02T09:30:32.938Z,75.80
2018-07-02T09:31:32.926Z,78.10
2018-07-02T09:32:32.963Z,79.10
2018-07-02T09:33:32.906Z,80.70
2018-07-02T09:34:32.894Z,79.00
2018-07-02T09:35:32.885Z,77.70
2018-07-02T09:36:33.074Z,82.70
2018-07-02T09:37:32.863Z,83.30
2018-07-02T09:38:32.854Z,80.00
2018-07-02T09:39:32.842Z,81.40
2018-07-02T09:40:32.833Z,80.90
2018-07-02T09:41:32.826Z,83.20
2018-07-02T09:42:32.810Z,84.80
2018-07-02T09:43:32.800Z,81.80
2018-07-02T09:44:32.790Z,81.10
2018-07-02T09:45:32.779Z,80.20
2018-07-02T09:46:32.824Z,79.90
2018-07-02T09:47:32.758Z,82.30
2018-07-02T09:48:32.748Z,84.20
2018-07-02T09:49:32.809Z,81.20
2018-07-02T09:50:32.726Z,79.20
2018-07-02T09:51:32.716Z,78.00
2018-07-02T09:52:32.705Z,77.40
2018-07-02T09:53:32.695Z,76.10
2018-07-02T09:54:32.684Z,80.60
2018-07-02T09:55:32.674Z,78.00
2018-07-02T09:56:32.663Z,76.70
2018-07-02T09:57:32.652Z,77.50
2018-07-02T09:58:32.643Z,77.10
2018-07-02T09:59:32.631Z,77.20
2018-07-02T10:00:32.629Z,77.50
2018-07-02T10:01:32.610Z,75.30
2018-07-02T10:02:32.601Z,78.30
2018-07-02T10:03:32.589Z,78.70
2018-07-02T10:04:32.580Z,80.20
2018-07-02T10:05:32.568Z,79.20
2018-07-02T10:06:32.606Z,76.90
2018-07-02T10:07:32.547Z,79.20
2018-07-02T10:08:32.536Z,76.90
2018-07-02T10:09:32.526Z,72.60
2018-07-02T10:10:32.515Z,76.10
2018-07-02T10:11:32.507Z,76.50
2018-07-02T10:12:32.786Z,76.30
2018-07-02T10:13:32.485Z,73.70
2018-07-02T10:14:32.473Z,72.70
2018-07-02T10:15:32.463Z,73.60
2018-07-02T10:16:32.452Z,71.70
2018-07-02T10:17:32.442Z,75.10
2018-07-02T10:18:32.431Z,79.30
2018-07-02T10:19:32.423Z,77.40
2018-07-02T10:20:32.411Z,75.50
2018-07-02T10:21:32.402Z,77.10
2018-07-02T10:22:32.391Z,76.80
2018-07-02T10:23:37.332Z,77.60
2018-07-02T10:24:32.570Z,76.00
2018-07-02T10:25:32.361Z,72.70
2018-07-02T10:26:32.348Z,73.70
2018-07-02T10:27:32.338Z,73.30
2018-07-02T10:28:32.328Z,76.50
2018-07-02T10:29:32.316Z,76.40
2018-07-02T10:30:32.507Z,77.80
2018-07-02T10:31:32.297Z,76.30
2018-07-02T10:32:32.288Z,77.60
2018-07-02T10:33:32.276Z,79.90
2018-07-02T10:34:32.265Z,80.20
2018-07-02T10:35:32.255Z,80.10
2018-07-02T10:36:32.245Z,81.90
2018-07-02T10:37:32.233Z,80.80
2018-07-02T10:38:32.223Z,83.70
2018-07-02T10:39:32.213Z,82.20
2018-07-02T10:40:32.203Z,77.80
2018-07-02T10:41:32.192Z,76.80
2018-07-02T10:42:32.182Z,75.60
2018-07-02T10:43:32.171Z,75.40
2018-07-02T10:44:32.161Z,73.20
2018-07-02T10:45:32.150Z,72.10
2018-07-02T10:46:32.141Z,70.50
2018-07-02T10:47:32.129Z,68.70
2018-07-02T10:48:32.320Z,68.80
2018-07-02T10:49:32.110Z,73.00
2018-07-02T10:50:32.102Z,70.60
2018-07-02T10:51:32.089Z,71.30
2018-07-02T10:52:32.079Z,69.40
2018-07-02T10:53:32.068Z,67.30
2018-07-02T10:54:32.061Z,66.70
2018-07-02T10:55:32.045Z,67.10
2018-07-02T10:56:32.036Z,65.40
2018-07-02T10:57:32.026Z,65.80
2018-07-02T10:58:32.015Z,65.30
2018-07-02T10:59:32.004Z,66.70
2018-07-02T11:00:31.994Z,66.30
2018-07-02T11:01:31.986Z,68.40
2018-07-02T11:02:31.974Z,66.90
2018-07-02T11:03:31.963Z,68.00
2018-07-02T11:04:31.951Z,67.80
2018-07-02T11:05:31.952Z,66.30
2018-07-02T11:06:31.930Z,67.00
2018-07-02T11:07:31.921Z,64.50
2018-07-02T11:08:31.909Z,67.00
2018-07-02T11:09:31.898Z,65.30
2018-07-02T11:10:31.888Z,67.00
2018-07-02T11:11:31.879Z,63.70
2018-07-02T11:12:31.868Z,62.20
2018-07-02T11:13:31.859Z,64.60
2018-07-02T11:14:31.849Z,63.10
2018-07-02T11:15:31.837Z,62.80
2018-07-02T11:16:31.827Z,62.50
2018-07-02T11:17:31.816Z,62.80
2018-07-02T11:18:32.008Z,63.40
2018-07-02T11:19:31.799Z,65.40
2018-07-02T11:20:31.788Z,64.50
2018-07-02T11:21:31.776Z,62.30
2018-07-02T11:22:31.766Z,62.20
2018-07-02T11:23:31.756Z,62.50
2018-07-02T11:24:31.746Z,62.30
2018-07-02T11:25:31.735Z,61.60
2018-07-02T11:26:31.724Z,64.00
2018-07-02T11:27:31.716Z,63.90
2018-07-02T11:28:31.708Z,61.20
2018-07-02T11:29:31.694Z,61.30
2018-07-02T11:30:31.685Z,60.80
2018-07-02T11:31:31.675Z,60.90
2018-07-02T11:32:31.668Z,62.00
2018-07-02T11:33:31.655Z,61.00
2018-07-02T11:34:31.645Z,62.90
2018-07-02T11:35:31.635Z,60.40
2018-07-02T11:36:31.627Z,61.20
2018-07-02T11:37:31.628Z,61.30
2018-07-02T11:38:31.606Z,60.00
2018-07-02T11:39:31.596Z,59.90
2018-07-02T11:40:31.588Z,59.50
2018-07-02T11:41:31.577Z,59.70
2018-07-02T11:42:31.568Z,57.30
2018-07-02T11:43:31.559Z,57.90
2018-07-02T11:44:31.550Z,57.80
2018-07-02T11:45:31.542Z,57.00
2018-07-02T11:46:31.530Z,56.80
2018-07-02T11:47:31.526Z,56.30
2018-07-02T11:48:31.513Z,56.40
2018-07-02T11:49:31.502Z,55.80
2018-07-02T11:50:31.494Z,54.10
2018-07-02T11:51:31.485Z,55.40
2018-07-02T11:52:31.477Z,53.50
2018-07-02T11:53:31.467Z,55.80
2018-07-02T11:54:31.459Z,53.90
2018-07-02T11:55:31.453Z,53.20
2018-07-02T11:56:31.442Z,53.80
2018-07-02T11:57:31.463Z,54.40
2018-07-02T11:58:31.424Z,53.20
2018-07-02T11:59:31.416Z,52.70
2018-07-02T12:00:31.407Z,54.40
2018-07-02T12:01:31.398Z,52.40
2018-07-02T12:02:31.390Z,52.30
2018-07-02T12:03:31.382Z,51.80
2018-07-02T12:04:31.374Z,53.90
2018-07-02T12:05:31.364Z,53.10
2018-07-02T12:06:31.356Z,50.40
2018-07-02T12:07:31.351Z,51.30
2018-07-02T12:08:31.344Z,51.50
2018-07-02T12:09:31.342Z,52.90
2018-07-02T12:10:31.324Z,47.80
2018-07-02T12:11:31.317Z,48.40
2018-07-02T12:12:31.309Z,49.30
2018-07-02T12:13:31.300Z,47.20
2018-07-02T12:14:31.296Z,48.80
2018-07-02T12:15:31.284Z,46.80
2018-07-02T12:16:31.282Z,48.70
2018-07-02T12:17:31.418Z,46.70
2018-07-02T12:18:31.260Z,47.40
2018-07-02T12:19:31.252Z,47.70
2018-07-02T12:20:31.250Z,46.60
2018-07-02T12:21:31.237Z,46.20
2018-07-02T12:22:31.230Z,45.20
2018-07-02T12:23:31.228Z,46.70
2018-07-02T12:24:31.216Z,46.30
2018-07-02T12:25:31.207Z,44.80
2018-07-02T12:26:31.244Z,42.90
2018-07-02T12:27:31.193Z,45.70
2018-07-02T12:28:31.186Z,44.80
2018-07-02T12:29:31.178Z,44.70
2018-07-02T12:30:31.172Z,45.40
2018-07-02T12:31:31.165Z,45.50
2018-07-02T12:32:31.157Z,47.40
2018-07-02T12:33:31.195Z,45.20
2018-07-02T12:34:31.144Z,44.30
2018-07-02T12:35:31.137Z,45.60
2018-07-02T12:36:31.130Z,44.70
2018-07-02T12:37:31.127Z,44.20
2018-07-02T12:38:31.135Z,45.80
2018-07-02T12:39:31.109Z,43.30
2018-07-02T12:40:31.103Z,42.60
2018-07-02T12:41:31.098Z,41.60
2018-07-02T12:42:31.089Z,42.30
2018-07-02T12:43:31.082Z,41.30